Time;durP1;ratioP1;P1;durP2;ratioP2;P2;SDS_P1;SDS_P2;PMS_P1;PMS_P2;Temp;Humidity;BMP_temperature;BMP_pressure;BME280_temperature;BME280_humidity;BME280_pressure;Samples;Min_cycle;Max_cycle;Signal;HPM_P1;HPM_P2
2022/04/18 04:48:54;;;;;;;7.25;3.60;;;3.70;99.90;;;;;;4803831;29;20365;-93
2022/04/18 04:51:22;;;;;;;5.88;3.80;;;3.60;99.90;;;;;;4781838;29;20038;-94
2022/04/18 04:53:49;;;;;;;6.78;3.58;;;3.80;99.90;;;;;;4811007;29;20055;-91
2022/04/18 04:56:17;;;;;;;6.25;3.90;;;3.10;99.90;;;;;;4809460;29;20043;-93
2022/04/18 04:58:45;;;;;;;7.35;3.90;;;2.50;99.90;;;;;;4800744;29;20055;-90
2022/04/18 05:01:12;;;;;;;6.43;3.53;;;2.20;99.90;;;;;;4801521;29;20138;-91
2022/04/18 05:03:39;;;;;;;6.75;3.83;;;2.60;99.90;;;;;;4795957;29;20086;-91
2022/04/18 05:06:10;;;;;;;6.10;3.78;;;2.70;99.90;;;;;;4775933;30;20086;-92
2022/04/18 05:08:38;;;;;;;6.50;3.50;;;2.80;99.90;;;;;;4772989;30;20127;-93
2022/04/18 05:11:05;;;;;;;5.82;3.33;;;2.90;99.90;;;;;;4791637;29;20058;-93
2022/04/18 05:13:32;;;;;;;6.80;3.85;;;2.90;99.90;;;;;;4789030;29;20106;-92
2022/04/18 05:15:59;;;;;;;6.38;3.70;;;2.90;99.90;;;;;;4787409;29;20134;-93
2022/04/18 05:18:29;;;;;;;5.55;3.53;;;2.90;99.90;;;;;;4789749;29;20086;-91
2022/04/18 05:20:57;;;;;;;5.43;3.13;;;3.10;99.90;;;;;;4781759;30;20058;-92
2022/04/18 05:23:26;;;;;;;5.50;3.30;;;3.50;99.90;;;;;;4788732;29;20059;-91
2022/04/18 05:25:54;;;;;;;6.30;3.60;;;3.70;99.90;;;;;;4788633;29;20108;-92
2022/04/18 05:28:21;;;;;;;6.53;3.67;;;3.70;99.90;;;;;;4788581;29;20051;-93
2022/04/18 05:30:48;;;;;;;5.97;3.50;;;3.80;99.90;;;;;;4783679;30;20152;-87
2022/04/18 05:33:16;;;;;;;6.90;3.97;;;3.70;99.90;;;;;;4789447;29;20059;-84
2022/04/18 05:35:43;;;;;;;6.63;3.60;;;3.50;99.90;;;;;;4792877;29;20122;-84
2022/04/18 05:38:10;;;;;;;7.53;3.80;;;3.20;99.90;;;;;;4790145;29;20071;-84
2022/04/18 05:40:40;;;;;;;6.80;3.78;;;3.40;99.90;;;;;;4789755;29;20065;-84
2022/04/18 05:43:08;;;;;;;6.43;3.83;;;3.60;99.90;;;;;;4789988;30;20082;-85
2022/04/18 05:45:36;;;;;;;6.20;3.53;;;3.70;99.90;;;;;;4788528;30;20536;-91
2022/04/18 05:48:03;;;;;;;6.32;3.58;;;3.70;99.90;;;;;;4781740;30;20062;-95
2022/04/18 05:50:30;;;;;;;7.03;4.18;;;3.60;99.90;;;;;;4788032;29;20107;-94
2022/04/18 05:53:06;;;;;;;7.43;3.85;;;3.80;99.90;;;;;;4792433;29;20168;-93
2022/04/18 05:55:37;;;;;;;6.55;3.65;;;4.00;99.90;;;;;;4785726;29;20146;-94
2022/04/18 05:58:05;;;;;;;5.47;3.42;;;4.10;99.90;;;;;;4775075;29;20059;-92
2022/04/18 06:00:34;;;;;;;7.03;3.78;;;4.30;99.90;;;;;;4791420;29;20096;-92
2022/04/18 06:03:01;;;;;;;5.15;3.50;;;4.50;99.20;;;;;;4792636;30;20060;-91
2022/04/18 06:05:29;;;;;;;6.00;3.70;;;4.50;98.90;;;;;;4783891;30;20047;-88
2022/04/18 06:07:57;;;;;;;7.20;3.60;;;4.20;99.50;;;;;;4790663;29;20542;-93
2022/04/18 06:10:24;;;;;;;7.05;3.45;;;4.20;99.90;;;;;;4786167;30;20387;-93
2022/04/18 06:12:52;;;;;;;6.63;3.97;;;4.20;99.90;;;;;;4790225;30;20080;-94
2022/04/18 06:15:21;;;;;;;5.68;3.63;;;4.10;99.90;;;;;;4795678;29;20108;-86
2022/04/18 06:17:48;;;;;;;5.43;3.45;;;4.10;99.90;;;;;;4790978;30;20081;-92
2022/04/18 06:20:15;;;;;;;4.88;3.28;;;4.30;99.90;;;;;;4775107;30;20055;-92
2022/04/18 06:22:44;;;;;;;5.93;3.47;;;4.50;99.70;;;;;;4776229;30;20148;-94
2022/04/18 06:25:11;;;;;;;5.78;3.70;;;4.70;99.30;;;;;;4778869;29;20063;-91
2022/04/18 06:27:38;;;;;;;6.15;3.40;;;4.80;99.40;;;;;;4786530;29;20059;-91
2022/04/18 06:30:07;;;;;;;5.10;3.15;;;5.00;98.80;;;;;;4795849;29;20100;-93
2022/04/18 06:32:38;;;;;;;6.00;3.25;;;5.20;98.60;;;;;;4787882;29;20094;-91
2022/04/18 06:35:07;;;;;;;5.35;3.30;;;5.20;98.10;;;;;;4790293;29;20147;-92
2022/04/18 06:37:34;;;;;;;5.85;3.20;;;5.30;97.60;;;;;;4784113;29;20154;-92
2022/04/18 06:40:02;;;;;;;5.85;3.38;;;5.40;96.60;;;;;;4784300;29;20138;-93
2022/04/18 06:42:29;;;;;;;5.30;3.25;;;5.40;96.50;;;;;;4792695;29;20135;-91
2022/04/18 06:44:57;;;;;;;5.72;3.20;;;5.30;95.50;;;;;;4780516;30;20051;-93
2022/04/18 06:47:24;;;;;;;5.75;3.17;;;5.60;95.20;;;;;;4777263;30;20051;-93
2022/04/18 06:49:55;;;;;;;5.32;2.88;;;5.60;94.80;;;;;;4785476;29;20470;-92
2022/04/18 06:52:24;;;;;;;6.18;3.10;;;5.60;94.70;;;;;;4794943;29;20462;-92
2022/04/18 06:54:51;;;;;;;5.82;3.08;;;5.70;94.90;;;;;;4789106;29;20155;-89
2022/04/18 06:57:17;;;;;;;7.25;3.65;;;5.80;94.80;;;;;;4789139;29;20051;-88
2022/04/18 06:59:46;;;;;;;7.15;3.35;;;5.80;95.20;;;;;;4789062;29;20062;-86
2022/04/18 07:02:13;;;;;;;6.55;3.55;;;5.80;95.80;;;;;;4791015;29;20100;-86
2022/04/18 07:04:41;;;;;;;8.80;4.20;;;5.90;95.80;;;;;;4789416;29;20081;-88
2022/04/18 07:07:09;;;;;;;7.15;4.00;;;5.80;95.60;;;;;;4793403;29;20075;-88
2022/04/18 07:09:36;;;;;;;8.15;4.05;;;5.70;95.40;;;;;;4789407;29;20104;-88
2022/04/18 07:12:04;;;;;;;6.15;3.65;;;5.70;96.00;;;;;;4771205;30;20055;-86
2022/04/18 07:14:31;;;;;;;7.57;3.70;;;5.90;95.90;;;;;;4788080;29;20059;-84
2022/04/18 07:16:59;;;;;;;6.40;3.60;;;6.00;95.90;;;;;;4788695;29;20055;-83
2022/04/18 07:19:28;;;;;;;5.45;3.50;;;6.10;95.70;;;;;;4788720;29;20476;-84
2022/04/18 07:21:55;;;;;;;7.90;3.70;;;6.20;95.50;;;;;;4789000;30;20058;-87
2022/04/18 07:24:24;;;;;;;6.65;3.80;;;6.40;94.40;;;;;;4789544;30;20065;-87
2022/04/18 07:26:51;;;;;;;7.05;3.70;;;6.40;93.90;;;;;;4794780;29;20055;-87
2022/04/18 07:29:18;;;;;;;6.28;3.63;;;6.50;94.30;;;;;;4783431;29;20051;-90
2022/04/18 07:31:46;;;;;;;6.82;3.60;;;6.70;94.30;;;;;;4781234;29;20066;-92
2022/04/18 07:34:13;;;;;;;6.30;3.30;;;6.70;94.50;;;;;;4777942;29;20502;-89
2022/04/18 07:36:40;;;;;;;5.55;3.38;;;6.80;94.80;;;;;;4789625;30;20504;-89
2022/04/18 07:39:08;;;;;;;5.85;3.47;;;6.80;94.50;;;;;;4789947;29;20417;-88
2022/04/18 07:41:37;;;;;;;6.05;3.38;;;6.90;94.70;;;;;;4775681;30;20058;-90
2022/04/18 07:44:07;;;;;;;5.82;3.67;;;7.00;94.70;;;;;;4790248;29;20134;-94
2022/04/18 07:46:34;;;;;;;7.32;4.50;;;7.10;94.70;;;;;;4779340;29;20063;-91
2022/04/18 07:49:02;;;;;;;6.47;4.30;;;7.20;94.70;;;;;;4789027;29;20086;-92
2022/04/18 07:51:36;;;;;;;6.85;4.45;;;7.30;94.50;;;;;;4786188;30;20090;-85
2022/04/18 07:54:05;;;;;;;6.35;4.10;;;7.40;94.10;;;;;;4762551;30;20395;-89
2022/04/18 07:56:33;;;;;;;7.00;3.17;;;7.50;94.20;;;;;;4806727;29;20035;-91
2022/04/18 07:59:03;;;;;;;6.30;3.33;;;7.50;94.30;;;;;;4798811;29;20043;-84
2022/04/18 08:01:30;;;;;;;7.38;3.58;;;7.70;94.10;;;;;;4787807;30;20055;-85
2022/04/18 08:04:00;;;;;;;6.03;3.60;;;7.80;93.90;;;;;;4787210;29;20134;-84
2022/04/18 08:06:27;;;;;;;6.22;3.75;;;8.10;93.50;;;;;;4786882;29;20490;-84
2022/04/18 08:08:54;;;;;;;5.47;3.40;;;8.10;93.10;;;;;;4785951;30;20166;-85
2022/04/18 08:11:21;;;;;;;6.60;3.88;;;8.20;92.90;;;;;;4787634;29;20058;-85
2022/04/18 08:13:51;;;;;;;6.28;3.67;;;8.40;91.80;;;;;;4802866;29;20082;-85
2022/04/18 08:16:20;;;;;;;6.22;3.55;;;8.50;91.70;;;;;;4787556;29;20123;-85
2022/04/18 08:18:47;;;;;;;6.25;3.60;;;8.60;90.70;;;;;;4788026;29;20106;-83
2022/04/18 08:21:17;;;;;;;6.35;3.65;;;8.70;90.30;;;;;;4785676;30;20055;-81
2022/04/18 08:23:44;;;;;;;6.72;3.65;;;8.80;90.20;;;;;;4771139;29;20051;-79
2022/04/18 08:26:12;;;;;;;6.28;3.83;;;8.90;90.20;;;;;;4778389;30;20054;-80
2022/04/18 08:28:39;;;;;;;5.57;3.55;;;9.10;90.10;;;;;;4776511;29;20069;-80
2022/04/18 08:31:07;;;;;;;5.93;3.75;;;9.00;90.00;;;;;;4779184;29;20047;-81
2022/04/18 08:33:36;;;;;;;6.65;3.65;;;9.00;89.30;;;;;;4772123;29;20099;-80
2022/04/18 08:36:04;;;;;;;5.97;3.63;;;9.10;88.70;;;;;;4773971;29;20055;-79
2022/04/18 08:38:31;;;;;;;5.75;3.28;;;9.10;87.50;;;;;;4773953;30;20148;-80
2022/04/18 08:41:04;;;;;;;6.43;3.53;;;9.30;86.60;;;;;;4777837;29;20051;-80
2022/04/18 08:43:31;;;;;;;7.25;3.95;;;9.50;86.40;;;;;;4773182;30;20464;-82
2022/04/18 08:45:58;;;;;;;7.35;3.95;;;9.60;86.00;;;;;;4779945;29;20398;-79
2022/04/18 08:53:58;;;;;;;6.55;3.42;;;10.00;81.40;;;;;;4790383;29;20069;-80
2022/04/18 08:56:26;;;;;;;4.55;2.78;;;10.20;77.80;;;;;;4792517;29;20051;-80
2022/04/18 08:58:54;;;;;;;6.03;3.17;;;10.30;76.90;;;;;;4805057;29;20047;-80
2022/04/18 09:01:21;;;;;;;4.72;2.50;;;10.50;74.20;;;;;;4799813;29;20117;-80
2022/04/18 09:03:49;;;;;;;6.22;2.83;;;10.60;73.60;;;;;;4800552;29;20568;-81
2022/04/18 09:06:17;;;;;;;5.20;2.95;;;10.70;73.50;;;;;;4797233;29;20221;-81
2022/04/18 09:08:47;;;;;;;6.13;2.95;;;10.60;73.20;;;;;;4794147;29;20406;-83
2022/04/18 09:11:28;;;;;;;5.13;2.53;;;10.60;72.50;;;;;;4797915;29;20055;-79
2022/04/18 09:14:06;;;;;;;5.93;2.65;;;10.80;69.40;;;;;;4800085;29;20062;-79
2022/04/18 09:16:34;;;;;;;5.05;2.65;;;11.00;67.40;;;;;;4786897;29;20063;-79
2022/04/18 09:19:09;;;;;;;5.95;2.50;;;11.20;66.70;;;;;;4790363;29;20458;-80
2022/04/18 09:21:43;;;;;;;5.07;2.17;;;11.20;66.40;;;;;;4802096;29;20054;-80
2022/04/18 09:24:31;;;;;;;3.85;1.73;;;11.20;66.70;;;;;;4799589;29;20055;-82
2022/04/18 09:27:00;;;;;;;4.13;2.42;;;11.20;63.90;;;;;;4795497;29;20066;-81
2022/04/18 09:29:33;;;;;;;4.43;2.20;;;11.30;63.30;;;;;;4800465;29;20057;-79
2022/04/18 09:32:01;;;;;;;5.85;2.30;;;11.20;62.50;;;;;;4805870;29;20054;-80
2022/04/18 09:34:28;;;;;;;4.38;2.50;;;11.40;62.60;;;;;;4796862;29;20141;-79
2022/04/18 09:39:55;;;;;;;4.38;2.40;;;11.30;62.70;;;;;;5129717;27;21111;-79
2022/04/18 09:42:24;;;;;;;4.57;2.75;;;11.70;62.80;;;;;;5108297;28;20514;-79
2022/04/18 09:44:51;;;;;;;5.10;2.20;;;11.70;61.50;;;;;;5115255;28;20365;-81
2022/04/18 09:47:20;;;;;;;5.05;2.50;;;11.70;60.90;;;;;;5126638;27;20047;-83
2022/04/18 09:49:48;;;;;;;4.85;2.50;;;11.70;60.40;;;;;;5130965;27;20083;-85
2022/04/18 09:52:17;;;;;;;4.60;2.50;;;11.70;61.80;;;;;;5121908;27;20552;-82
2022/04/18 09:54:45;;;;;;;4.72;2.60;;;11.80;61.80;;;;;;5112469;28;20415;-81
2022/04/18 09:57:14;;;;;;;4.43;2.10;;;11.80;62.00;;;;;;5105552;28;20062;-84
2022/04/18 09:59:42;;;;;;;5.00;2.70;;;11.90;60.90;;;;;;5107229;28;20047;-82
2022/04/18 10:02:14;;;;;;;4.78;2.60;;;12.10;60.20;;;;;;5119587;28;20063;-86
2022/04/18 10:04:42;;;;;;;5.72;2.80;;;12.10;59.20;;;;;;5115690;27;20051;-84
2022/04/18 10:07:10;;;;;;;4.93;2.40;;;12.20;59.70;;;;;;5107661;28;20144;-80
2022/04/18 10:09:40;;;;;;;4.35;2.28;;;12.40;59.50;;;;;;5122534;28;20048;-84
2022/04/18 10:12:09;;;;;;;8.82;2.80;;;12.40;57.50;;;;;;5123755;28;20054;-85
2022/04/18 10:14:42;;;;;;;4.53;2.20;;;12.30;58.00;;;;;;5126911;28;20130;-84
2022/04/18 10:17:11;;;;;;;5.18;2.50;;;12.30;57.80;;;;;;5129692;28;20048;-82
2022/04/18 10:20:01;;;;;;;4.50;2.55;;;12.40;57.70;;;;;;5121126;28;20047;-86
2022/04/18 10:23:03;;;;;;;4.95;2.30;;;12.30;57.40;;;;;;5118695;28;20044;-83
2022/04/18 10:25:50;;;;;;;4.90;2.70;;;12.50;58.80;;;;;;5094976;28;20062;-80
2022/04/18 10:28:19;;;;;;;4.78;2.30;;;12.50;57.10;;;;;;5119965;28;20138;-84
2022/04/18 10:30:54;;;;;;;4.70;2.40;;;12.70;57.70;;;;;;5112789;27;20132;-81
2022/04/18 10:33:21;;;;;;;;;;;12.60;57.30;;;;;;5122563;27;20047;-80
2022/04/18 10:35:54;;;;;;;5.00;2.40;;;12.70;56.10;;;;;;5109086;27;19919;-79
2022/04/18 10:38:25;;;;;;;3.85;2.20;;;12.70;56.20;;;;;;5115129;28;20054;-78
2022/04/18 10:41:14;;;;;;;5.22;2.00;;;12.80;56.10;;;;;;5111280;28;20048;-78
2022/04/18 10:44:01;;;;;;;4.50;2.20;;;12.80;54.60;;;;;;5113938;28;20385;-81
2022/04/18 10:46:30;;;;;;;6.15;2.50;;;13.00;57.30;;;;;;5114340;28;20040;-82
2022/04/18 10:48:58;;;;;;;5.15;2.58;;;13.00;55.40;;;;;;5116197;28;20142;-79
2022/04/18 10:51:35;;;;;;;4.35;2.17;;;13.10;54.90;;;;;;5099948;28;20039;-82
2022/04/18 10:54:10;;;;;;;5.40;2.40;;;13.00;55.60;;;;;;5107310;28;20048;-82
2022/04/18 10:56:48;;;;;;;;;;;13.20;56.40;;;;;;5109096;28;20385;-82
2022/04/18 10:59:16;;;;;;;5.47;2.78;;;13.30;56.30;;;;;;5100201;28;19923;-83
2022/04/18 11:01:45;;;;;;;6.63;3.47;;;13.30;55.70;;;;;;5113411;28;20035;-83
2022/04/18 11:04:13;;;;;;;5.82;2.67;;;13.00;54.10;;;;;;5097466;27;20075;-82
2022/04/18 11:07:00;;;;;;;5.68;2.80;;;13.30;55.70;;;;;;5091475;28;20048;-83
2022/04/18 11:09:29;;;;;;;4.78;2.67;;;13.30;55.10;;;;;;5096798;28;20044;-80
2022/04/18 11:12:08;;;;;;;6.90;3.30;;;13.60;55.10;;;;;;5108553;28;20083;-83
2022/04/18 11:14:52;;;;;;;5.25;2.50;;;13.40;54.00;;;;;;5108570;28;20092;-83
2022/04/18 11:17:29;;;;;;;;;;;13.30;53.60;;;;;;5105214;28;20400;-79
2022/04/18 11:19:56;;;;;;;6.82;2.80;;;13.20;52.90;;;;;;5092369;28;19938;-81
2022/04/18 11:22:24;;;;;;;5.38;2.58;;;13.50;53.80;;;;;;5104932;28;20138;-81
2022/04/18 11:25:00;;;;;;;5.22;2.78;;;13.60;54.90;;;;;;5112227;28;20139;-81
2022/04/18 11:27:38;;;;;;;6.15;3.13;;;13.70;53.60;;;;;;5108636;28;20043;-81
2022/04/18 11:30:11;;;;;;;5.68;2.58;;;13.60;52.90;;;;;;5098091;28;20154;-83
2022/04/18 11:32:44;;;;;;;4.80;2.70;;;13.90;54.30;;;;;;5112046;28;20058;-82
2022/04/18 11:35:14;;;;;;;4.70;2.55;;;14.10;54.00;;;;;;5111728;28;20450;-81
2022/04/18 11:37:44;;;;;;;5.18;2.90;;;14.10;53.40;;;;;;5110873;28;20488;-81
2022/04/18 11:40:13;;;;;;;4.65;2.30;;;14.10;53.70;;;;;;5110255;28;20070;-79
2022/04/18 11:42:41;;;;;;;4.70;2.30;;;14.20;53.20;;;;;;5109960;28;20134;-80
2022/04/18 11:45:13;;;;;;;4.30;2.42;;;14.30;53.80;;;;;;5112411;28;20047;-81
2022/04/18 11:47:47;;;;;;;5.32;2.60;;;14.40;53.60;;;;;;5103794;28;20064;-81
2022/04/18 11:50:21;;;;;;;5.28;2.80;;;14.40;52.50;;;;;;5109176;28;20044;-79
2022/04/18 11:52:52;;;;;;;6.03;2.97;;;14.40;53.40;;;;;;5109743;28;20052;-77
2022/04/18 11:55:19;;;;;;;5.03;2.90;;;14.30;51.80;;;;;;5109252;28;20086;-78
2022/04/18 11:57:48;;;;;;;4.43;2.80;;;14.40;52.00;;;;;;5110316;28;20079;-76
2022/04/18 12:06:44;;;;;;;8.27;3.35;;;14.60;52.60;;;;;;5108889;28;20047;-79
2022/04/18 12:08:45;;;;;;;6.63;3.08;;;15.00;52.20;;;;;;5109801;28;20188;-77
2022/04/18 12:11:12;;;;;;;6.80;3.25;;;15.00;51.80;;;;;;5112510;28;20050;-75
2022/04/18 12:13:42;;;;;;;5.57;3.17;;;14.90;50.40;;;;;;5107662;28;20063;-76
2022/04/18 12:16:11;;;;;;;5.40;2.88;;;15.00;52.00;;;;;;5107044;28;20135;-80
2022/04/18 12:18:40;;;;;;;5.25;2.83;;;15.20;50.90;;;;;;5116654;28;20545;-84
2022/04/18 12:21:08;;;;;;;5.35;2.75;;;15.30;51.50;;;;;;5114198;28;20043;-83
2022/04/18 12:23:36;;;;;;;5.60;2.50;;;15.50;50.30;;;;;;5116557;28;20360;-82
2022/04/18 12:26:03;;;;;;;4.60;2.60;;;15.50;49.00;;;;;;5118783;28;20104;-81
2022/04/18 12:28:31;;;;;;;5.07;2.47;;;15.40;49.90;;;;;;5115912;28;20146;-82
2022/04/18 12:30:59;;;;;;;4.78;2.50;;;15.70;50.10;;;;;;5115377;28;20044;-81
2022/04/18 12:33:29;;;;;;;6.25;2.90;;;15.70;49.30;;;;;;5115361;28;20381;-80
2022/04/18 12:36:00;;;;;;;5.00;2.65;;;15.70;48.80;;;;;;5115084;28;20044;-82
2022/04/18 12:38:34;;;;;;;4.28;2.45;;;16.00;49.30;;;;;;5114354;28;20214;-81
2022/04/18 12:41:02;;;;;;;;;;;16.10;48.30;;;;;;5115589;28;20627;-79
2022/04/18 12:43:31;;;;;;;5.95;2.78;;;16.20;47.80;;;;;;5114909;28;19925;-80
2022/04/18 12:46:01;;;;;;;5.43;2.70;;;16.20;46.80;;;;;;5116903;28;20047;-80
2022/04/18 12:48:31;;;;;;;5.53;2.70;;;16.30;46.70;;;;;;5115445;28;20043;-79
2022/04/18 12:51:02;;;;;;;5.95;2.30;;;16.50;47.20;;;;;;5115514;28;20055;-83
2022/04/18 12:53:47;;;;;;;4.35;2.40;;;16.60;46.20;;;;;;5116173;28;20476;-80
2022/04/18 12:56:20;;;;;;;4.43;2.53;;;16.70;46.70;;;;;;5117212;28;20515;-80
2022/04/18 12:58:48;;;;;;;5.47;2.28;;;16.70;46.50;;;;;;5118479;28;20111;-81
2022/04/18 13:01:22;;;;;;;4.70;2.38;;;17.00;46.90;;;;;;5119171;28;20138;-82
2022/04/18 13:03:51;;;;;;;3.58;1.98;;;17.20;46.00;;;;;;5116418;28;20518;-81
2022/04/18 13:06:24;;;;;;;4.28;2.25;;;17.40;46.10;;;;;;5115449;28;20071;-81
2022/04/18 13:08:57;;;;;;;4.18;2.28;;;17.50;44.60;;;;;;5114437;28;20058;-80
2022/04/18 13:11:35;;;;;;;4.85;2.30;;;17.40;45.70;;;;;;5115755;28;20047;-81
2022/04/18 13:14:03;;;;;;;4.15;2.17;;;17.80;43.60;;;;;;5116959;28;20073;-80
2022/04/18 13:16:30;;;;;;;4.18;2.30;;;17.90;44.60;;;;;;5116958;28;20074;-80
2022/04/18 13:18:59;;;;;;;3.95;2.03;;;18.00;43.40;;;;;;5116767;28;20047;-79
2022/04/18 13:21:28;;;;;;;4.38;2.38;;;17.80;44.10;;;;;;5115680;28;20149;-80
2022/04/18 13:23:56;;;;;;;4.13;2.35;;;18.00;44.40;;;;;;5112688;28;20047;-80
2022/04/18 13:26:23;;;;;;;5.00;2.55;;;18.20;43.50;;;;;;5111023;28;20048;-81
2022/04/18 13:28:51;;;;;;;4.43;2.22;;;18.10;43.10;;;;;;5111307;28;20496;-79
2022/04/18 13:31:18;;;;;;;4.88;2.10;;;18.30;43.50;;;;;;5111904;28;20083;-79
2022/04/18 13:33:45;;;;;;;4.30;2.17;;;18.40;43.40;;;;;;5109314;28;20431;-80
2022/04/18 13:36:33;;;;;;;4.38;2.20;;;18.50;43.70;;;;;;5111594;28;20138;-81
2022/04/18 13:39:03;;;;;;;4.97;2.00;;;18.70;42.10;;;;;;5113345;28;20068;-80
2022/04/18 13:41:30;;;;;;;4.15;2.25;;;18.90;42.60;;;;;;5112762;28;20052;-81
2022/04/18 13:43:57;;;;;;;4.30;2.35;;;19.10;42.20;;;;;;5110326;28;20128;-78
2022/04/18 13:46:24;;;;;;;3.75;1.95;;;19.00;40.90;;;;;;5112204;28;20052;-83
2022/04/18 13:48:51;;;;;;;3.97;2.08;;;19.10;40.60;;;;;;5092131;28;20050;-76
2022/04/18 13:51:20;;;;;;;4.65;2.60;;;19.40;45.40;;;;;;5111220;28;20050;-84
2022/04/18 13:53:48;;;;;;;4.10;2.33;;;19.60;40.40;;;;;;5111940;28;20621;-85
2022/04/18 13:56:19;;;;;;;4.25;2.00;;;19.30;40.50;;;;;;5117053;28;20055;-84
2022/04/18 13:58:47;;;;;;;4.20;2.20;;;20.00;39.80;;;;;;5123581;28;20115;-84
2022/04/18 14:01:14;;;;;;;4.20;2.25;;;20.10;39.30;;;;;;5124406;28;20077;-84
2022/04/18 14:03:42;;;;;;;3.53;1.98;;;20.10;40.50;;;;;;5120557;28;20079;-84
2022/04/18 14:06:10;;;;;;;4.00;2.10;;;19.90;39.30;;;;;;5125032;28;20075;-84
2022/04/18 14:08:40;;;;;;;3.95;2.00;;;19.70;40.00;;;;;;5121275;28;20051;-86
2022/04/18 14:11:09;;;;;;;3.53;1.80;;;19.70;40.20;;;;;;5124843;28;20115;-84
2022/04/18 14:13:39;;;;;;;3.95;1.98;;;20.30;39.60;;;;;;5118499;28;20052;-82
2022/04/18 14:21:37;;;;;;;5.30;1.70;;;21.40;38.90;;;;;;5113772;28;20595;-88
2022/04/18 14:24:05;;;;;;;4.57;2.00;;;21.40;38.20;;;;;;5111966;28;20469;-88
2022/04/18 14:26:33;;;;;;;4.35;2.10;;;21.50;38.30;;;;;;5115659;28;20062;-90
2022/04/18 14:29:02;;;;;;;3.85;1.90;;;22.60;38.00;;;;;;5116173;28;20066;-90
2022/04/18 14:31:30;;;;;;;3.92;1.98;;;23.40;36.10;;;;;;5116951;28;20128;-88
2022/04/18 14:33:57;;;;;;;3.17;1.75;;;22.70;35.40;;;;;;5126670;28;20107;-88
2022/04/18 14:36:24;;;;;;;3.22;1.67;;;23.60;36.10;;;;;;5119644;28;20050;-89
2022/04/18 14:38:52;;;;;;;4.53;2.10;;;23.80;34.10;;;;;;5116902;28;20481;-89
2022/04/18 14:41:19;;;;;;;3.10;1.90;;;24.30;34.40;;;;;;5117211;28;20490;-88
2022/04/18 14:43:46;;;;;;;3.50;1.65;;;24.40;34.30;;;;;;5118657;28;20055;-88
2022/04/18 14:46:17;;;;;;;3.85;1.70;;;24.80;34.00;;;;;;5119666;27;20109;-88
2022/04/18 14:48:44;;;;;;;3.65;1.88;;;25.40;34.10;;;;;;5119358;28;20070;-89
2022/04/18 14:51:12;;;;;;;3.67;1.98;;;25.30;33.50;;;;;;5117348;28;20043;-88
2022/04/18 14:53:39;;;;;;;3.35;1.85;;;25.00;33.30;;;;;;5118313;28;20538;-89
2022/04/18 14:56:06;;;;;;;3.15;1.65;;;26.70;32.30;;;;;;5115430;28;20138;-88
2022/04/18 14:58:33;;;;;;;2.85;1.50;;;26.40;31.90;;;;;;5113828;28;20057;-88
2022/04/18 15:01:02;;;;;;;3.38;1.63;;;26.70;32.80;;;;;;5115842;28;20411;-88
2022/04/18 15:03:31;;;;;;;3.05;1.65;;;25.00;32.60;;;;;;5114736;27;20082;-90
2022/04/18 15:05:58;;;;;;;4.63;1.75;;;26.10;31.90;;;;;;5115320;28;20079;-89
2022/04/18 15:08:26;;;;;;;4.10;1.60;;;25.70;31.50;;;;;;5116202;28;20465;-89
2022/04/18 15:10:53;;;;;;;3.30;1.70;;;24.00;33.00;;;;;;5122386;28;20093;-88
2022/04/18 15:13:20;;;;;;;4.47;1.70;;;25.00;32.20;;;;;;5122854;28;20162;-89
2022/04/18 15:15:47;;;;;;;3.00;1.20;;;25.70;31.70;;;;;;5122538;28;20044;-88
2022/04/18 15:18:15;;;;;;;4.00;1.45;;;25.60;33.00;;;;;;5125483;28;20059;-88
2022/04/18 15:20:43;;;;;;;3.13;1.45;;;25.60;31.50;;;;;;5129593;28;20452;-89
2022/04/18 15:23:10;;;;;;;3.67;1.60;;;26.20;32.90;;;;;;5116540;28;20139;-87
2022/04/18 15:25:39;;;;;;;3.25;1.25;;;26.60;32.50;;;;;;5112940;28;20089;-88
2022/04/18 15:28:07;;;;;;;2.75;1.20;;;26.40;32.80;;;;;;5114512;28;20479;-88
2022/04/18 15:33:19;;;;;;;3.58;1.58;;;26.70;31.70;;;;;;5099211;28;20051;-88
2022/04/18 15:35:47;;;;;;;11.35;7.50;;;26.60;32.60;;;;;;5094764;28;20084;-88
2022/04/18 15:38:15;;;;;;;7.68;4.95;;;26.50;31.20;;;;;;5105281;28;20058;-87
2022/04/18 15:40:42;;;;;;;6.13;3.95;;;26.50;31.50;;;;;;5114881;28;20573;-87
2022/04/18 15:43:10;;;;;;;3.45;1.60;;;27.00;31.90;;;;;;5117323;28;20120;-87
2022/04/18 15:45:37;;;;;;;2.70;1.42;;;26.60;31.20;;;;;;5122455;28;20066;-88
2022/04/18 15:48:05;;;;;;;3.08;1.40;;;25.80;32.80;;;;;;5122902;27;20138;-87
2022/04/18 15:50:33;;;;;;;2.80;1.50;;;25.80;32.30;;;;;;5122963;28;20104;-88
2022/04/18 15:53:01;;;;;;;2.63;1.50;;;25.80;32.10;;;;;;5120096;28;20400;-85
2022/04/18 15:55:28;;;;;;;3.20;1.50;;;26.20;31.60;;;;;;5122724;28;20074;-85
2022/04/18 15:57:56;;;;;;;4.15;1.75;;;25.70;32.20;;;;;;5124585;28;20499;-85
2022/04/18 16:00:23;;;;;;;3.13;1.48;;;25.30;31.90;;;;;;5124860;28;20050;-87
2022/04/18 16:02:50;;;;;;;2.80;1.42;;;25.50;31.70;;;;;;5123419;28;20075;-86
2022/04/18 16:05:17;;;;;;;4.45;1.45;;;25.80;33.10;;;;;;5125480;28;20131;-85
2022/04/18 16:07:45;;;;;;;3.67;1.35;;;25.40;31.50;;;;;;5128310;28;20047;-88
2022/04/18 16:10:13;;;;;;;2.60;1.40;;;25.00;32.80;;;;;;5118584;28;20047;-82
2022/04/18 16:12:40;;;;;;;2.72;1.20;;;24.70;32.50;;;;;;5099709;28;20123;-78
2022/04/18 16:15:08;;;;;;;2.55;1.23;;;25.10;32.40;;;;;;5116012;28;20043;-79
2022/04/18 16:17:36;;;;;;;2.80;1.30;;;25.40;32.00;;;;;;5105624;28;20070;-80
2022/04/18 16:20:08;;;;;;;3.17;1.33;;;25.60;32.40;;;;;;5112890;28;20131;-79
2022/04/18 16:22:35;;;;;;;2.70;1.30;;;25.10;32.60;;;;;;5121682;28;20047;-79
2022/04/18 16:25:02;;;;;;;2.80;1.20;;;24.80;32.80;;;;;;5111365;28;20054;-80
2022/04/18 16:27:31;;;;;;;2.55;1.10;;;25.10;31.50;;;;;;5108514;28;20046;-79
2022/04/18 16:32:42;;;;;;;3.33;1.45;;;24.00;33.00;;;;;;5101467;28;20062;-79
2022/04/18 16:35:09;;;;;;;3.58;1.30;;;25.00;32.90;;;;;;5102701;28;20040;-79
2022/04/18 16:37:38;;;;;;;2.80;1.25;;;24.40;32.50;;;;;;5107885;28;20062;-79
2022/04/18 16:40:07;;;;;;;6.63;4.13;;;24.50;33.30;;;;;;5111868;28;20091;-80
2022/04/18 16:48:07;;;;;;;3.75;1.63;;;24.90;32.90;;;;;;5105759;28;20058;-80
2022/04/18 16:50:35;;;;;;;3.63;1.40;;;24.10;34.20;;;;;;5107263;28;20054;-79
2022/04/18 16:53:02;;;;;;;3.17;1.42;;;24.10;34.50;;;;;;5108438;28;20044;-81
2022/04/18 16:55:29;;;;;;;2.95;1.50;;;24.40;33.10;;;;;;5124848;27;20051;-78
2022/04/18 16:57:58;;;;;;;2.75;1.27;;;23.90;34.10;;;;;;5111374;27;20043;-80
2022/04/18 17:00:25;;;;;;;3.67;1.40;;;24.20;35.30;;;;;;5112480;28;20159;-77
2022/04/18 17:02:55;;;;;;;3.40;1.55;;;23.00;35.70;;;;;;5112371;28;20054;-78
2022/04/18 17:05:22;;;;;;;2.55;1.20;;;23.40;34.70;;;;;;5094166;28;20142;-79
2022/04/18 17:07:49;;;;;;;2.65;1.40;;;23.50;34.80;;;;;;5099298;28;20112;-79
2022/04/18 17:10:17;;;;;;;3.45;1.50;;;23.40;35.00;;;;;;5104086;28;20409;-84
2022/04/18 17:12:44;;;;;;;3.00;1.48;;;23.10;34.70;;;;;;5117942;28;20048;-79
2022/04/18 17:15:13;;;;;;;3.00;1.20;;;23.10;34.80;;;;;;5120807;28;20062;-80
2022/04/18 17:17:40;;;;;;;2.72;1.10;;;23.10;35.10;;;;;;5124244;28;20066;-83
2022/04/18 17:20:08;;;;;;;2.95;1.30;;;23.00;35.20;;;;;;5117954;28;20116;-80
2022/04/18 17:22:38;;;;;;;3.35;1.52;;;22.80;36.00;;;;;;5126646;28;20134;-81
2022/04/18 17:25:06;;;;;;;3.28;1.23;;;22.10;34.70;;;;;;5126804;28;20068;-83
2022/04/18 17:27:34;;;;;;;2.42;1.10;;;22.30;36.00;;;;;;5122890;28;20130;-82
2022/04/18 17:30:03;;;;;;;3.13;1.30;;;22.20;36.50;;;;;;5114738;28;20405;-84
2022/04/18 17:32:31;;;;;;;2.88;1.27;;;22.00;36.50;;;;;;5109188;28;20044;-82
2022/04/18 17:35:00;;;;;;;2.95;1.10;;;21.60;36.70;;;;;;5106972;28;20471;-82
2022/04/18 17:37:27;;;;;;;2.92;1.20;;;21.50;36.90;;;;;;5094078;28;20481;-85
2022/04/18 17:39:56;;;;;;;3.00;1.20;;;21.30;38.20;;;;;;5110937;28;20047;-84
2022/04/18 17:42:23;;;;;;;2.72;1.40;;;21.00;37.60;;;;;;5108970;28;20035;-84
2022/04/18 17:44:50;;;;;;;2.75;1.20;;;21.10;37.90;;;;;;5107161;28;20142;-85
2022/04/18 17:47:17;;;;;;;2.80;1.20;;;21.30;38.00;;;;;;5111914;28;20062;-83
2022/04/18 17:49:46;;;;;;;2.50;1.23;;;20.90;38.60;;;;;;5110983;28;20055;-81
2022/04/18 17:52:13;;;;;;;3.70;1.23;;;20.70;38.30;;;;;;5109136;28;20056;-88
2022/04/18 17:57:25;;;;;;;2.35;1.30;;;20.20;40.00;;;;;;5097152;28;20082;-83
2022/04/18 17:59:52;;;;;;;3.15;1.40;;;20.40;39.40;;;;;;5112032;28;20423;-84
2022/04/18 18:02:20;;;;;;;3.28;1.52;;;20.30;40.20;;;;;;5113777;27;20065;-83
2022/04/18 18:04:49;;;;;;;3.17;1.40;;;19.90;40.30;;;;;;5112977;28;20090;-78
2022/04/18 18:07:16;;;;;;;2.95;1.30;;;19.30;41.50;;;;;;5106564;28;20039;-82
2022/04/18 18:09:45;;;;;;;3.00;1.20;;;19.60;43.10;;;;;;5113813;28;20112;-78
2022/04/18 18:12:12;;;;;;;24.20;14.07;;;19.30;43.10;;;;;;5111854;28;20055;-80
2022/04/18 18:14:40;;;;;;;18.88;10.07;;;19.00;43.60;;;;;;5111378;28;20553;-77
2022/04/18 18:17:07;;;;;;;26.92;14.60;;;18.70;44.30;;;;;;5108504;27;20043;-78
2022/04/18 18:19:34;;;;;;;15.68;8.70;;;18.70;45.10;;;;;;5108157;28;20514;-79
2022/04/18 18:22:03;;;;;;;7.57;4.00;;;18.40;45.10;;;;;;5100849;28;20401;-79